sensor_id;sensor_type;location;lat;lon;timestamp;P1;durP1;ratioP1;P2;durP2;ratioP2
8632;SDS011;4354;49.832;10.746;2022-07-09T00:01:41;5.20;;;1.77;;
8632;SDS011;4354;49.832;10.746;2022-07-09T00:04:08;4.75;;;2.03;;
8632;SDS011;4354;49.832;10.746;2022-07-09T00:06:35;2.50;;;1.70;;
8632;SDS011;4354;49.832;10.746;2022-07-09T00:09:02;3.67;;;1.60;;
8632;SDS011;4354;49.832;10.746;2022-07-09T00:11:29;4.22;;;2.00;;
8632;SDS011;4354;49.832;10.746;2022-07-09T00:13:56;4.90;;;1.85;;
8632;SDS011;4354;49.832;10.746;2022-07-09T00:16:22;4.67;;;1.80;;
8632;SDS011;4354;49.832;10.746;2022-07-09T00:18:49;3.03;;;1.80;;
8632;SDS011;4354;49.832;10.746;2022-07-09T00:21:16;4.10;;;1.93;;
8632;SDS011;4354;49.832;10.746;2022-07-09T00:23:42;7.67;;;2.10;;
8632;SDS011;4354;49.832;10.746;2022-07-09T00:26:09;3.80;;;1.80;;
8632;SDS011;4354;49.832;10.746;2022-07-09T00:28:36;4.47;;;2.03;;
8632;SDS011;4354;49.832;10.746;2022-07-09T00:31:03;4.05;;;2.40;;
8632;SDS011;4354;49.832;10.746;2022-07-09T00:33:30;2.63;;;2.30;;
8632;SDS011;4354;49.832;10.746;2022-07-09T00:35:56;5.93;;;2.73;;
8632;SDS011;4354;49.832;10.746;2022-07-09T00:38:23;5.27;;;2.23;;
8632;SDS011;4354;49.832;10.746;2022-07-09T00:40:50;3.67;;;2.23;;
8632;SDS011;4354;49.832;10.746;2022-07-09T00:43:20;4.00;;;2.30;;
8632;SDS011;4354;49.832;10.746;2022-07-09T00:45:48;5.73;;;2.20;;
8632;SDS011;4354;49.832;10.746;2022-07-09T00:48:15;4.93;;;2.27;;
8632;SDS011;4354;49.832;10.746;2022-07-09T00:50:43;4.70;;;1.73;;
8632;SDS011;4354;49.832;10.746;2022-07-09T00:53:12;2.27;;;1.80;;
8632;SDS011;4354;49.832;10.746;2022-07-09T00:55:41;5.40;;;1.93;;
8632;SDS011;4354;49.832;10.746;2022-07-09T00:58:11;3.23;;;2.03;;
8632;SDS011;4354;49.832;10.746;2022-07-09T01:00:38;3.10;;;1.63;;
8632;SDS011;4354;49.832;10.746;2022-07-09T01:03:07;5.13;;;1.67;;
8632;SDS011;4354;49.832;10.746;2022-07-09T01:05:33;5.47;;;2.17;;
8632;SDS011;4354;49.832;10.746;2022-07-09T01:08:07;4.87;;;1.97;;
8632;SDS011;4354;49.832;10.746;2022-07-09T01:10:35;3.33;;;1.90;;
8632;SDS011;4354;49.832;10.746;2022-07-09T01:13:04;4.10;;;1.90;;
8632;SDS011;4354;49.832;10.746;2022-07-09T01:15:32;3.37;;;1.60;;
8632;SDS011;4354;49.832;10.746;2022-07-09T01:17:59;4.37;;;1.70;;
8632;SDS011;4354;49.832;10.746;2022-07-09T01:20:29;3.77;;;1.77;;
8632;SDS011;4354;49.832;10.746;2022-07-09T01:22:57;4.83;;;1.70;;
8632;SDS011;4354;49.832;10.746;2022-07-09T01:25:28;3.30;;;1.70;;
8632;SDS011;4354;49.832;10.746;2022-07-09T01:28:02;5.03;;;2.17;;
8632;SDS011;4354;49.832;10.746;2022-07-09T01:30:32;2.30;;;1.70;;
8632;SDS011;4354;49.832;10.746;2022-07-09T01:33:00;2.77;;;1.97;;
8632;SDS011;4354;49.832;10.746;2022-07-09T01:35:27;3.83;;;1.70;;
8632;SDS011;4354;49.832;10.746;2022-07-09T01:37:54;3.80;;;1.90;;
8632;SDS011;4354;49.832;10.746;2022-07-09T01:40:21;2.07;;;1.87;;
8632;SDS011;4354;49.832;10.746;2022-07-09T01:42:49;3.07;;;1.77;;
8632;SDS011;4354;49.832;10.746;2022-07-09T01:45:16;3.20;;;1.80;;
8632;SDS011;4354;49.832;10.746;2022-07-09T01:47:43;2.03;;;1.83;;
8632;SDS011;4354;49.832;10.746;2022-07-09T01:50:10;4.50;;;1.90;;
8632;SDS011;4354;49.832;10.746;2022-07-09T01:52:37;5.30;;;2.20;;
8632;SDS011;4354;49.832;10.746;2022-07-09T01:55:04;4.83;;;1.90;;
8632;SDS011;4354;49.832;10.746;2022-07-09T01:57:31;6.60;;;2.50;;
8632;SDS011;4354;49.832;10.746;2022-07-09T01:59:57;3.77;;;2.10;;
8632;SDS011;4354;49.832;10.746;2022-07-09T02:02:24;3.03;;;1.80;;
8632;SDS011;4354;49.832;10.746;2022-07-09T02:04:52;3.13;;;2.13;;
8632;SDS011;4354;49.832;10.746;2022-07-09T02:07:18;4.10;;;2.10;;
8632;SDS011;4354;49.832;10.746;2022-07-09T02:09:45;4.73;;;1.83;;
8632;SDS011;4354;49.832;10.746;2022-07-09T02:12:12;2.37;;;1.70;;
8632;SDS011;4354;49.832;10.746;2022-07-09T02:14:38;3.20;;;2.07;;
8632;SDS011;4354;49.832;10.746;2022-07-09T02:17:05;4.13;;;1.80;;
8632;SDS011;4354;49.832;10.746;2022-07-09T02:19:32;2.70;;;1.90;;
8632;SDS011;4354;49.832;10.746;2022-07-09T02:21:59;4.70;;;1.70;;
8632;SDS011;4354;49.832;10.746;2022-07-09T02:24:25;2.03;;;1.70;;
8632;SDS011;4354;49.832;10.746;2022-07-09T02:26:52;2.10;;;1.90;;
8632;SDS011;4354;49.832;10.746;2022-07-09T02:29:19;2.30;;;2.00;;
8632;SDS011;4354;49.832;10.746;2022-07-09T02:31:46;3.63;;;1.90;;
8632;SDS011;4354;49.832;10.746;2022-07-09T02:34:12;2.83;;;2.23;;
8632;SDS011;4354;49.832;10.746;2022-07-09T02:36:39;5.77;;;2.00;;
8632;SDS011;4354;49.832;10.746;2022-07-09T02:39:06;4.57;;;2.10;;
8632;SDS011;4354;49.832;10.746;2022-07-09T02:41:33;2.93;;;2.27;;
8632;SDS011;4354;49.832;10.746;2022-07-09T02:43:59;4.40;;;2.00;;
8632;SDS011;4354;49.832;10.746;2022-07-09T02:46:26;2.93;;;2.13;;
8632;SDS011;4354;49.832;10.746;2022-07-09T02:48:53;3.73;;;2.40;;
8632;SDS011;4354;49.832;10.746;2022-07-09T02:51:20;4.00;;;2.10;;
8632;SDS011;4354;49.832;10.746;2022-07-09T02:53:46;3.80;;;2.10;;
8632;SDS011;4354;49.832;10.746;2022-07-09T02:56:13;3.87;;;2.10;;
8632;SDS011;4354;49.832;10.746;2022-07-09T02:58:40;2.73;;;2.10;;
8632;SDS011;4354;49.832;10.746;2022-07-09T03:01:06;4.10;;;2.60;;
8632;SDS011;4354;49.832;10.746;2022-07-09T03:03:33;3.13;;;2.10;;
8632;SDS011;4354;49.832;10.746;2022-07-09T03:06:02;2.77;;;2.10;;
8632;SDS011;4354;49.832;10.746;2022-07-09T03:08:32;4.07;;;2.30;;
8632;SDS011;4354;49.832;10.746;2022-07-09T03:10:59;5.37;;;2.33;;
8632;SDS011;4354;49.832;10.746;2022-07-09T03:13:26;2.23;;;2.00;;
8632;SDS011;4354;49.832;10.746;2022-07-09T03:15:53;6.23;;;1.97;;
8632;SDS011;4354;49.832;10.746;2022-07-09T03:18:19;4.10;;;1.93;;
8632;SDS011;4354;49.832;10.746;2022-07-09T03:20:47;5.50;;;2.30;;
8632;SDS011;4354;49.832;10.746;2022-07-09T03:23:14;8.53;;;2.07;;
8632;SDS011;4354;49.832;10.746;2022-07-09T03:25:40;3.30;;;1.90;;
8632;SDS011;4354;49.832;10.746;2022-07-09T03:28:07;3.73;;;2.00;;
8632;SDS011;4354;49.832;10.746;2022-07-09T03:30:34;5.33;;;2.40;;
8632;SDS011;4354;49.832;10.746;2022-07-09T03:33:01;3.30;;;2.17;;
8632;SDS011;4354;49.832;10.746;2022-07-09T03:35:28;3.00;;;1.90;;
8632;SDS011;4354;49.832;10.746;2022-07-09T03:37:55;2.90;;;2.20;;
8632;SDS011;4354;49.832;10.746;2022-07-09T03:40:21;4.30;;;1.97;;
8632;SDS011;4354;49.832;10.746;2022-07-09T03:42:48;3.03;;;2.20;;
8632;SDS011;4354;49.832;10.746;2022-07-09T03:45:15;6.87;;;2.50;;
8632;SDS011;4354;49.832;10.746;2022-07-09T03:47:42;4.73;;;2.07;;
8632;SDS011;4354;49.832;10.746;2022-07-09T03:50:08;3.23;;;2.00;;
8632;SDS011;4354;49.832;10.746;2022-07-09T03:52:35;2.57;;;2.13;;
8632;SDS011;4354;49.832;10.746;2022-07-09T03:55:02;3.33;;;2.20;;
8632;SDS011;4354;49.832;10.746;2022-07-09T03:57:30;2.67;;;1.83;;
8632;SDS011;4354;49.832;10.746;2022-07-09T03:59:57;3.97;;;1.97;;
8632;SDS011;4354;49.832;10.746;2022-07-09T04:02:24;3.10;;;1.80;;
8632;SDS011;4354;49.832;10.746;2022-07-09T04:04:50;2.13;;;1.50;;
8632;SDS011;4354;49.832;10.746;2022-07-09T04:07:17;2.47;;;2.00;;
8632;SDS011;4354;49.832;10.746;2022-07-09T04:09:44;4.00;;;1.80;;
8632;SDS011;4354;49.832;10.746;2022-07-09T04:12:10;1.50;;;1.40;;
8632;SDS011;4354;49.832;10.746;2022-07-09T04:14:37;2.80;;;1.73;;
8632;SDS011;4354;49.832;10.746;2022-07-09T04:17:04;3.10;;;2.00;;
8632;SDS011;4354;49.832;10.746;2022-07-09T04:19:32;4.83;;;2.07;;
8632;SDS011;4354;49.832;10.746;2022-07-09T04:21:59;4.30;;;1.90;;
8632;SDS011;4354;49.832;10.746;2022-07-09T04:24:26;2.27;;;1.90;;
8632;SDS011;4354;49.832;10.746;2022-07-09T04:26:53;2.13;;;1.60;;
8632;SDS011;4354;49.832;10.746;2022-07-09T04:29:19;2.13;;;1.83;;
8632;SDS011;4354;49.832;10.746;2022-07-09T04:31:46;2.87;;;2.00;;
8632;SDS011;4354;49.832;10.746;2022-07-09T04:34:13;4.07;;;1.90;;
8632;SDS011;4354;49.832;10.746;2022-07-09T04:36:39;4.83;;;1.87;;
8632;SDS011;4354;49.832;10.746;2022-07-09T04:39:06;3.70;;;1.80;;
8632;SDS011;4354;49.832;10.746;2022-07-09T04:41:33;4.03;;;1.73;;
8632;SDS011;4354;49.832;10.746;2022-07-09T04:44:00;3.13;;;1.60;;
8632;SDS011;4354;49.832;10.746;2022-07-09T04:46:27;2.30;;;1.38;;
8632;SDS011;4354;49.832;10.746;2022-07-09T04:48:57;2.83;;;1.58;;
8632;SDS011;4354;49.832;10.746;2022-07-09T04:51:24;2.63;;;1.75;;
8632;SDS011;4354;49.832;10.746;2022-07-09T04:53:50;5.03;;;1.67;;
8632;SDS011;4354;49.832;10.746;2022-07-09T04:56:17;2.80;;;1.48;;
8632;SDS011;4354;49.832;10.746;2022-07-09T04:58:44;2.65;;;1.52;;
8632;SDS011;4354;49.832;10.746;2022-07-09T05:01:21;4.78;;;2.20;;
8632;SDS011;4354;49.832;10.746;2022-07-09T05:03:48;5.95;;;1.85;;
8632;SDS011;4354;49.832;10.746;2022-07-09T05:06:16;4.97;;;1.80;;
8632;SDS011;4354;49.832;10.746;2022-07-09T05:08:43;1.77;;;1.33;;
8632;SDS011;4354;49.832;10.746;2022-07-09T05:11:11;3.17;;;1.58;;
8632;SDS011;4354;49.832;10.746;2022-07-09T05:13:43;3.72;;;1.52;;
8632;SDS011;4354;49.832;10.746;2022-07-09T05:16:12;1.98;;;1.75;;
8632;SDS011;4354;49.832;10.746;2022-07-09T05:18:39;2.28;;;1.30;;
8632;SDS011;4354;49.832;10.746;2022-07-09T05:21:05;3.80;;;1.67;;
8632;SDS011;4354;49.832;10.746;2022-07-09T05:23:33;1.63;;;1.52;;
8632;SDS011;4354;49.832;10.746;2022-07-09T05:26:00;5.38;;;2.00;;
8632;SDS011;4354;49.832;10.746;2022-07-09T05:28:27;6.55;;;3.53;;
8632;SDS011;4354;49.832;10.746;2022-07-09T05:30:54;7.05;;;5.10;;
8632;SDS011;4354;49.832;10.746;2022-07-09T05:33:41;5.53;;;5.03;;
8632;SDS011;4354;49.832;10.746;2022-07-09T05:36:14;8.85;;;4.60;;
8632;SDS011;4354;49.832;10.746;2022-07-09T05:38:41;5.90;;;4.13;;
8632;SDS011;4354;49.832;10.746;2022-07-09T05:41:08;7.53;;;4.32;;
8632;SDS011;4354;49.832;10.746;2022-07-09T05:43:36;5.20;;;3.40;;
8632;SDS011;4354;49.832;10.746;2022-07-09T05:46:03;4.20;;;3.30;;
8632;SDS011;4354;49.832;10.746;2022-07-09T05:48:30;5.10;;;2.90;;
8632;SDS011;4354;49.832;10.746;2022-07-09T05:50:57;4.32;;;2.30;;
8632;SDS011;4354;49.832;10.746;2022-07-09T05:53:24;3.22;;;2.20;;
8632;SDS011;4354;49.832;10.746;2022-07-09T05:55:50;2.58;;;1.90;;
8632;SDS011;4354;49.832;10.746;2022-07-09T05:58:17;4.45;;;1.83;;
8632;SDS011;4354;49.832;10.746;2022-07-09T06:00:44;5.68;;;2.15;;
8632;SDS011;4354;49.832;10.746;2022-07-09T06:03:11;3.53;;;1.83;;
8632;SDS011;4354;49.832;10.746;2022-07-09T06:05:37;2.83;;;1.85;;
8632;SDS011;4354;49.832;10.746;2022-07-09T06:08:04;3.80;;;1.85;;
8632;SDS011;4354;49.832;10.746;2022-07-09T06:10:31;3.78;;;1.67;;
8632;SDS011;4354;49.832;10.746;2022-07-09T06:12:59;3.28;;;1.80;;
8632;SDS011;4354;49.832;10.746;2022-07-09T06:15:25;2.97;;;1.80;;
8632;SDS011;4354;49.832;10.746;2022-07-09T06:17:52;3.58;;;1.98;;
8632;SDS011;4354;49.832;10.746;2022-07-09T06:20:19;3.25;;;1.63;;
8632;SDS011;4354;49.832;10.746;2022-07-09T06:22:46;3.40;;;2.00;;
8632;SDS011;4354;49.832;10.746;2022-07-09T06:25:13;3.13;;;1.67;;
8632;SDS011;4354;49.832;10.746;2022-07-09T06:27:39;2.83;;;1.80;;
8632;SDS011;4354;49.832;10.746;2022-07-09T06:30:07;2.40;;;1.42;;
8632;SDS011;4354;49.832;10.746;2022-07-09T06:32:35;3.13;;;1.52;;
8632;SDS011;4354;49.832;10.746;2022-07-09T06:35:01;3.42;;;1.52;;
8632;SDS011;4354;49.832;10.746;2022-07-09T06:37:29;5.97;;;1.60;;
8632;SDS011;4354;49.832;10.746;2022-07-09T06:39:55;2.80;;;1.50;;
8632;SDS011;4354;49.832;10.746;2022-07-09T06:42:25;3.25;;;1.30;;
8632;SDS011;4354;49.832;10.746;2022-07-09T06:45:00;4.78;;;1.40;;
8632;SDS011;4354;49.832;10.746;2022-07-09T06:47:26;3.38;;;1.20;;
8632;SDS011;4354;49.832;10.746;2022-07-09T06:49:53;2.30;;;1.20;;
8632;SDS011;4354;49.832;10.746;2022-07-09T06:52:20;2.25;;;1.10;;
8632;SDS011;4354;49.832;10.746;2022-07-09T06:54:46;3.05;;;1.23;;
8632;SDS011;4354;49.832;10.746;2022-07-09T06:57:13;3.42;;;1.30;;
8632;SDS011;4354;49.832;10.746;2022-07-09T06:59:42;3.70;;;1.45;;
8632;SDS011;4354;49.832;10.746;2022-07-09T07:02:09;2.60;;;1.05;;
8632;SDS011;4354;49.832;10.746;2022-07-09T07:04:35;4.22;;;1.50;;
8632;SDS011;4354;49.832;10.746;2022-07-09T07:07:02;5.13;;;1.52;;
8632;SDS011;4354;49.832;10.746;2022-07-09T07:09:30;4.82;;;1.48;;
8632;SDS011;4354;49.832;10.746;2022-07-09T07:11:57;4.15;;;1.80;;
8632;SDS011;4354;49.832;10.746;2022-07-09T07:14:25;3.80;;;1.42;;
8632;SDS011;4354;49.832;10.746;2022-07-09T07:16:52;6.13;;;1.77;;
8632;SDS011;4354;49.832;10.746;2022-07-09T07:19:20;4.45;;;1.40;;
8632;SDS011;4354;49.832;10.746;2022-07-09T07:21:48;3.63;;;1.50;;
8632;SDS011;4354;49.832;10.746;2022-07-09T07:24:15;3.15;;;1.70;;
8632;SDS011;4354;49.832;10.746;2022-07-09T07:26:41;2.78;;;1.67;;
8632;SDS011;4354;49.832;10.746;2022-07-09T07:29:08;3.63;;;1.55;;
8632;SDS011;4354;49.832;10.746;2022-07-09T07:31:38;4.05;;;1.40;;
8632;SDS011;4354;49.832;10.746;2022-07-09T07:34:05;4.32;;;1.60;;
8632;SDS011;4354;49.832;10.746;2022-07-09T07:36:32;4.47;;;1.92;;
8632;SDS011;4354;49.832;10.746;2022-07-09T07:39:00;4.20;;;1.60;;
8632;SDS011;4354;49.832;10.746;2022-07-09T07:41:27;3.88;;;1.52;;
8632;SDS011;4354;49.832;10.746;2022-07-09T07:43:54;4.35;;;1.50;;
8632;SDS011;4354;49.832;10.746;2022-07-09T07:46:22;4.55;;;1.80;;
8632;SDS011;4354;49.832;10.746;2022-07-09T07:48:50;3.20;;;1.52;;
8632;SDS011;4354;49.832;10.746;2022-07-09T07:51:17;7.22;;;1.70;;
8632;SDS011;4354;49.832;10.746;2022-07-09T07:53:43;3.35;;;1.20;;
8632;SDS011;4354;49.832;10.746;2022-07-09T07:56:10;3.10;;;1.60;;
8632;SDS011;4354;49.832;10.746;2022-07-09T07:58:38;1.98;;;1.02;;
8632;SDS011;4354;49.832;10.746;2022-07-09T08:01:05;4.60;;;1.40;;
8632;SDS011;4354;49.832;10.746;2022-07-09T08:03:32;2.38;;;1.02;;
8632;SDS011;4354;49.832;10.746;2022-07-09T08:05:59;3.80;;;1.38;;
8632;SDS011;4354;49.832;10.746;2022-07-09T08:08:26;2.75;;;1.40;;
8632;SDS011;4354;49.832;10.746;2022-07-09T08:10:53;3.28;;;1.40;;
8632;SDS011;4354;49.832;10.746;2022-07-09T08:13:20;3.00;;;1.48;;
8632;SDS011;4354;49.832;10.746;2022-07-09T08:15:47;4.68;;;1.50;;
8632;SDS011;4354;49.832;10.746;2022-07-09T08:18:14;1.27;;;1.02;;
8632;SDS011;4354;49.832;10.746;2022-07-09T08:20:41;2.17;;;1.10;;
8632;SDS011;4354;49.832;10.746;2022-07-09T08:23:08;1.90;;;1.02;;
8632;SDS011;4354;49.832;10.746;2022-07-09T08:25:35;2.22;;;1.20;;
8632;SDS011;4354;49.832;10.746;2022-07-09T08:28:02;3.38;;;1.17;;
8632;SDS011;4354;49.832;10.746;2022-07-09T08:30:29;2.72;;;1.23;;
8632;SDS011;4354;49.832;10.746;2022-07-09T08:32:57;2.55;;;1.55;;
8632;SDS011;4354;49.832;10.746;2022-07-09T08:35:23;2.47;;;1.35;;
8632;SDS011;4354;49.832;10.746;2022-07-09T08:37:52;3.08;;;1.35;;
8632;SDS011;4354;49.832;10.746;2022-07-09T08:40:20;2.75;;;1.52;;
8632;SDS011;4354;49.832;10.746;2022-07-09T08:42:48;2.72;;;1.33;;
8632;SDS011;4354;49.832;10.746;2022-07-09T08:45:19;2.22;;;1.10;;
8632;SDS011;4354;49.832;10.746;2022-07-09T08:47:47;2.28;;;1.40;;
8632;SDS011;4354;49.832;10.746;2022-07-09T08:50:13;2.85;;;1.45;;
8632;SDS011;4354;49.832;10.746;2022-07-09T08:52:40;3.95;;;1.73;;
8632;SDS011;4354;49.832;10.746;2022-07-09T08:55:08;3.40;;;1.70;;
8632;SDS011;4354;49.832;10.746;2022-07-09T08:57:35;2.42;;;1.30;;
8632;SDS011;4354;49.832;10.746;2022-07-09T09:00:03;3.00;;;1.20;;
8632;SDS011;4354;49.832;10.746;2022-07-09T09:02:35;4.72;;;1.40;;
8632;SDS011;4354;49.832;10.746;2022-07-09T09:05:13;5.93;;;1.50;;
8632;SDS011;4354;49.832;10.746;2022-07-09T09:07:41;1.60;;;1.30;;
8632;SDS011;4354;49.832;10.746;2022-07-09T09:10:08;2.60;;;1.60;;
8632;SDS011;4354;49.832;10.746;2022-07-09T09:12:45;2.25;;;1.27;;
8632;SDS011;4354;49.832;10.746;2022-07-09T09:15:16;1.60;;;1.10;;
8632;SDS011;4354;49.832;10.746;2022-07-09T09:17:43;2.80;;;1.60;;
8632;SDS011;4354;49.832;10.746;2022-07-09T09:20:11;2.95;;;1.42;;
8632;SDS011;4354;49.832;10.746;2022-07-09T09:22:46;3.33;;;1.45;;
8632;SDS011;4354;49.832;10.746;2022-07-09T09:25:20;3.20;;;1.30;;
8632;SDS011;4354;49.832;10.746;2022-07-09T09:27:51;2.20;;;1.30;;
8632;SDS011;4354;49.832;10.746;2022-07-09T09:30:19;4.85;;;1.65;;
8632;SDS011;4354;49.832;10.746;2022-07-09T09:33:02;4.10;;;1.23;;
8632;SDS011;4354;49.832;10.746;2022-07-09T09:35:32;3.42;;;1.30;;
8632;SDS011;4354;49.832;10.746;2022-07-09T09:37:59;2.53;;;1.23;;
8632;SDS011;4354;49.832;10.746;2022-07-09T09:40:26;4.55;;;1.58;;
8632;SDS011;4354;49.832;10.746;2022-07-09T09:42:54;3.92;;;1.48;;
8632;SDS011;4354;49.832;10.746;2022-07-09T09:45:24;1.90;;;1.38;;
8632;SDS011;4354;49.832;10.746;2022-07-09T09:47:56;2.60;;;1.58;;
8632;SDS011;4354;49.832;10.746;2022-07-09T09:50:25;2.45;;;1.40;;
8632;SDS011;4354;49.832;10.746;2022-07-09T09:52:52;3.72;;;1.20;;
8632;SDS011;4354;49.832;10.746;2022-07-09T09:55:21;1.85;;;1.20;;
8632;SDS011;4354;49.832;10.746;2022-07-09T09:57:49;3.13;;;1.20;;
8632;SDS011;4354;49.832;10.746;2022-07-09T10:00:18;2.35;;;1.33;;
8632;SDS011;4354;49.832;10.746;2022-07-09T10:02:46;3.95;;;1.55;;
8632;SDS011;4354;49.832;10.746;2022-07-09T10:05:13;2.50;;;1.70;;
8632;SDS011;4354;49.832;10.746;2022-07-09T10:07:40;2.58;;;1.70;;
8632;SDS011;4354;49.832;10.746;2022-07-09T10:10:08;5.53;;;1.70;;
8632;SDS011;4354;49.832;10.746;2022-07-09T10:12:42;2.53;;;1.42;;
8632;SDS011;4354;49.832;10.746;2022-07-09T10:15:31;3.78;;;1.52;;
8632;SDS011;4354;49.832;10.746;2022-07-09T10:17:57;3.03;;;1.63;;
8632;SDS011;4354;49.832;10.746;2022-07-09T10:20:31;2.25;;;1.40;;
8632;SDS011;4354;49.832;10.746;2022-07-09T10:23:00;4.80;;;1.55;;
8632;SDS011;4354;49.832;10.746;2022-07-09T10:25:30;6.28;;;1.83;;
8632;SDS011;4354;49.832;10.746;2022-07-09T10:28:15;3.00;;;1.38;;
8632;SDS011;4354;49.832;10.746;2022-07-09T10:30:43;2.15;;;1.30;;
8632;SDS011;4354;49.832;10.746;2022-07-09T10:33:20;4.00;;;1.45;;
8632;SDS011;4354;49.832;10.746;2022-07-09T10:35:49;3.47;;;1.50;;
8632;SDS011;4354;49.832;10.746;2022-07-09T10:38:21;3.05;;;1.60;;
8632;SDS011;4354;49.832;10.746;2022-07-09T10:40:55;3.63;;;1.30;;
8632;SDS011;4354;49.832;10.746;2022-07-09T10:46:15;3.00;;;1.25;;
8632;SDS011;4354;49.832;10.746;2022-07-09T10:48:43;3.22;;;1.50;;
8632;SDS011;4354;49.832;10.746;2022-07-09T10:51:21;2.38;;;1.75;;
8632;SDS011;4354;49.832;10.746;2022-07-09T10:53:49;3.47;;;1.63;;
8632;SDS011;4354;49.832;10.746;2022-07-09T10:56:19;2.20;;;1.73;;
8632;SDS011;4354;49.832;10.746;2022-07-09T10:58:47;5.90;;;1.40;;
8632;SDS011;4354;49.832;10.746;2022-07-09T11:01:22;3.60;;;1.63;;
8632;SDS011;4354;49.832;10.746;2022-07-09T11:03:51;3.13;;;1.73;;
8632;SDS011;4354;49.832;10.746;2022-07-09T11:06:20;3.15;;;2.05;;
8632;SDS011;4354;49.832;10.746;2022-07-09T11:08:47;2.40;;;2.17;;
8632;SDS011;4354;49.832;10.746;2022-07-09T11:11:20;3.03;;;1.90;;
8632;SDS011;4354;49.832;10.746;2022-07-09T11:13:50;2.63;;;2.10;;
8632;SDS011;4354;49.832;10.746;2022-07-09T11:16:21;3.83;;;1.90;;
8632;SDS011;4354;49.832;10.746;2022-07-09T11:18:49;2.97;;;2.35;;
8632;SDS011;4354;49.832;10.746;2022-07-09T11:21:21;3.47;;;2.60;;
8632;SDS011;4354;49.832;10.746;2022-07-09T11:23:48;7.43;;;2.20;;
8632;SDS011;4354;49.832;10.746;2022-07-09T11:26:15;3.38;;;2.35;;
8632;SDS011;4354;49.832;10.746;2022-07-09T11:28:42;3.08;;;2.00;;
8632;SDS011;4354;49.832;10.746;2022-07-09T11:31:10;3.15;;;2.30;;
8632;SDS011;4354;49.832;10.746;2022-07-09T11:33:37;3.15;;;2.28;;
8632;SDS011;4354;49.832;10.746;2022-07-09T11:36:23;3.20;;;2.55;;
8632;SDS011;4354;49.832;10.746;2022-07-09T11:38:50;3.30;;;2.17;;
8632;SDS011;4354;49.832;10.746;2022-07-09T11:41:18;4.60;;;2.08;;
8632;SDS011;4354;49.832;10.746;2022-07-09T11:43:49;3.92;;;2.15;;
8632;SDS011;4354;49.832;10.746;2022-07-09T11:46:19;3.08;;;1.85;;
8632;SDS011;4354;49.832;10.746;2022-07-09T11:48:53;2.30;;;1.98;;
8632;SDS011;4354;49.832;10.746;2022-07-09T11:53:57;2.67;;;2.08;;
8632;SDS011;4354;49.832;10.746;2022-07-09T11:56:24;2.00;;;1.80;;
8632;SDS011;4354;49.832;10.746;2022-07-09T11:58:51;2.22;;;1.90;;
8632;SDS011;4354;49.832;10.746;2022-07-09T12:01:18;2.38;;;1.90;;
8632;SDS011;4354;49.832;10.746;2022-07-09T12:03:49;4.47;;;2.15;;
8632;SDS011;4354;49.832;10.746;2022-07-09T12:06:16;3.15;;;1.77;;
8632;SDS011;4354;49.832;10.746;2022-07-09T12:08:43;3.33;;;1.77;;
8632;SDS011;4354;49.832;10.746;2022-07-09T12:11:10;2.50;;;2.10;;
8632;SDS011;4354;49.832;10.746;2022-07-09T12:13:37;2.83;;;1.90;;
8632;SDS011;4354;49.832;10.746;2022-07-09T12:16:04;2.90;;;1.90;;
8632;SDS011;4354;49.832;10.746;2022-07-09T12:18:31;4.03;;;2.03;;
8632;SDS011;4354;49.832;10.746;2022-07-09T12:20:58;2.08;;;1.70;;
8632;SDS011;4354;49.832;10.746;2022-07-09T12:23:25;2.40;;;2.10;;
8632;SDS011;4354;49.832;10.746;2022-07-09T12:25:52;2.33;;;1.95;;
8632;SDS011;4354;49.832;10.746;2022-07-09T12:28:19;2.78;;;1.77;;
8632;SDS011;4354;49.832;10.746;2022-07-09T12:30:47;1.83;;;1.70;;
8632;SDS011;4354;49.832;10.746;2022-07-09T12:33:15;3.88;;;1.98;;
8632;SDS011;4354;49.832;10.746;2022-07-09T12:35:42;2.70;;;2.15;;
8632;SDS011;4354;49.832;10.746;2022-07-09T12:38:09;3.83;;;1.80;;
8632;SDS011;4354;49.832;10.746;2022-07-09T12:40:36;5.68;;;2.25;;
8632;SDS011;4354;49.832;10.746;2022-07-09T12:43:03;7.28;;;2.08;;
8632;SDS011;4354;49.832;10.746;2022-07-09T12:45:29;3.97;;;1.73;;
8632;SDS011;4354;49.832;10.746;2022-07-09T12:47:56;3.08;;;2.10;;
8632;SDS011;4354;49.832;10.746;2022-07-09T12:50:23;2.67;;;2.05;;
8632;SDS011;4354;49.832;10.746;2022-07-09T12:52:50;5.40;;;2.08;;
8632;SDS011;4354;49.832;10.746;2022-07-09T12:55:17;2.80;;;1.80;;
8632;SDS011;4354;49.832;10.746;2022-07-09T12:57:44;2.47;;;2.28;;
8632;SDS011;4354;49.832;10.746;2022-07-09T13:00:11;2.65;;;2.13;;
8632;SDS011;4354;49.832;10.746;2022-07-09T13:02:40;2.00;;;1.90;;
8632;SDS011;4354;49.832;10.746;2022-07-09T13:05:07;2.03;;;1.90;;
8632;SDS011;4354;49.832;10.746;2022-07-09T13:07:35;4.65;;;2.40;;
8632;SDS011;4354;49.832;10.746;2022-07-09T13:10:02;1.92;;;1.65;;
8632;SDS011;4354;49.832;10.746;2022-07-09T13:12:29;3.47;;;2.00;;
8632;SDS011;4354;49.832;10.746;2022-07-09T13:14:57;2.20;;;2.00;;
8632;SDS011;4354;49.832;10.746;2022-07-09T13:17:25;5.13;;;1.98;;
8632;SDS011;4354;49.832;10.746;2022-07-09T13:19:57;4.28;;;1.92;;
8632;SDS011;4354;49.832;10.746;2022-07-09T13:22:24;4.03;;;2.17;;
8632;SDS011;4354;49.832;10.746;2022-07-09T13:24:50;2.63;;;2.00;;
8632;SDS011;4354;49.832;10.746;2022-07-09T13:27:17;3.30;;;2.13;;
8632;SDS011;4354;49.832;10.746;2022-07-09T13:29:47;3.95;;;1.90;;
8632;SDS011;4354;49.832;10.746;2022-07-09T13:32:16;2.20;;;2.00;;
8632;SDS011;4354;49.832;10.746;2022-07-09T13:34:48;1.88;;;1.75;;
8632;SDS011;4354;49.832;10.746;2022-07-09T13:37:16;2.13;;;1.90;;
8632;SDS011;4354;49.832;10.746;2022-07-09T13:39:44;2.40;;;1.95;;
8632;SDS011;4354;49.832;10.746;2022-07-09T13:42:11;1.73;;;1.63;;
8632;SDS011;4354;49.832;10.746;2022-07-09T13:44:37;2.65;;;1.83;;
8632;SDS011;4354;49.832;10.746;2022-07-09T13:47:05;2.60;;;1.80;;
8632;SDS011;4354;49.832;10.746;2022-07-09T13:49:32;3.17;;;1.77;;
8632;SDS011;4354;49.832;10.746;2022-07-09T13:51:59;2.83;;;1.75;;
8632;SDS011;4354;49.832;10.746;2022-07-09T13:54:26;2.10;;;1.90;;
8632;SDS011;4354;49.832;10.746;2022-07-09T13:56:54;5.80;;;2.00;;
8632;SDS011;4354;49.832;10.746;2022-07-09T13:59:23;3.17;;;1.80;;
8632;SDS011;4354;49.832;10.746;2022-07-09T14:01:50;3.85;;;1.80;;
8632;SDS011;4354;49.832;10.746;2022-07-09T14:04:17;4.03;;;2.08;;
8632;SDS011;4354;49.832;10.746;2022-07-09T14:06:44;2.10;;;1.90;;
8632;SDS011;4354;49.832;10.746;2022-07-09T14:09:13;2.10;;;1.85;;
8632;SDS011;4354;49.832;10.746;2022-07-09T14:11:44;3.03;;;1.70;;
8632;SDS011;4354;49.832;10.746;2022-07-09T14:14:10;2.10;;;1.80;;
8632;SDS011;4354;49.832;10.746;2022-07-09T14:16:37;3.13;;;1.90;;
8632;SDS011;4354;49.832;10.746;2022-07-09T14:19:04;3.55;;;2.08;;
8632;SDS011;4354;49.832;10.746;2022-07-09T14:21:31;3.08;;;2.17;;
8632;SDS011;4354;49.832;10.746;2022-07-09T14:23:58;2.72;;;1.95;;
8632;SDS011;4354;49.832;10.746;2022-07-09T14:26:25;3.40;;;1.90;;
8632;SDS011;4354;49.832;10.746;2022-07-09T14:28:52;4.65;;;2.10;;
8632;SDS011;4354;49.832;10.746;2022-07-09T14:31:19;5.22;;;2.10;;
8632;SDS011;4354;49.832;10.746;2022-07-09T14:33:46;4.15;;;1.90;;
8632;SDS011;4354;49.832;10.746;2022-07-09T14:36:13;2.95;;;1.70;;
8632;SDS011;4354;49.832;10.746;2022-07-09T14:38:40;3.42;;;1.77;;
8632;SDS011;4354;49.832;10.746;2022-07-09T14:41:07;2.40;;;1.80;;
8632;SDS011;4354;49.832;10.746;2022-07-09T14:43:34;2.38;;;1.92;;
8632;SDS011;4354;49.832;10.746;2022-07-09T14:46:01;2.42;;;1.70;;
8632;SDS011;4354;49.832;10.746;2022-07-09T14:48:28;3.17;;;1.90;;
8632;SDS011;4354;49.832;10.746;2022-07-09T14:50:55;1.83;;;1.67;;
8632;SDS011;4354;49.832;10.746;2022-07-09T14:53:22;2.00;;;1.80;;
8632;SDS011;4354;49.832;10.746;2022-07-09T14:55:48;4.78;;;2.15;;
8632;SDS011;4354;49.832;10.746;2022-07-09T14:58:15;3.35;;;2.00;;
8632;SDS011;4354;49.832;10.746;2022-07-09T15:00:42;3.78;;;1.90;;
8632;SDS011;4354;49.832;10.746;2022-07-09T15:03:09;2.38;;;2.10;;
8632;SDS011;4354;49.832;10.746;2022-07-09T15:05:36;3.63;;;2.10;;
8632;SDS011;4354;49.832;10.746;2022-07-09T15:08:09;2.83;;;2.15;;
8632;SDS011;4354;49.832;10.746;2022-07-09T15:10:36;2.38;;;2.17;;